createdAt,value
2019-04-21T00:02:05.532Z,13.8
2019-04-21T00:07:56.855Z,13.6
2019-04-21T00:13:23.232Z,12.2
2019-04-21T00:18:50.475Z,12.4
2019-04-21T00:24:27.415Z,12.5
2019-04-21T00:30:03.133Z,14.2
2019-04-21T00:35:20.977Z,14.1
2019-04-21T00:41:13.071Z,13.6
2019-04-21T00:46:34.653Z,13.3
2019-04-21T00:52:20.702Z,12.7
2019-04-21T00:57:51.176Z,12.7
2019-04-21T01:03:20.001Z,12
2019-04-21T01:08:45.546Z,12.1
2019-04-21T01:14:29.618Z,12.9
2019-04-21T01:19:50.476Z,13.1
2019-04-21T01:25:14.165Z,13.1
2019-04-21T01:30:56.662Z,12.4
2019-04-21T01:36:23.103Z,12.7
2019-04-21T01:42:03.024Z,12.5
2019-04-21T01:47:30.868Z,11.9
2019-04-21T01:53:10.721Z,11.6
2019-04-21T01:58:28.687Z,11.6
2019-04-21T02:04:04.099Z,11.7
2019-04-21T02:09:41.778Z,11.7
2019-04-21T02:15:16.451Z,11.4
2019-04-21T02:20:36.361Z,11
2019-04-21T02:26:15.912Z,11.1
2019-04-21T02:32:01.472Z,11.4
2019-04-21T02:43:05.183Z,11.4
2019-04-21T02:48:37.932Z,10.8
2019-04-21T02:59:41.581Z,10.6
2019-04-21T03:05:10.899Z,10.6
2019-04-21T03:10:43.034Z,10.1
2019-04-21T03:21:47.963Z,9.9
2019-04-21T03:38:18.633Z,10.3
2019-04-21T03:43:49.873Z,10
2019-04-21T03:54:53.020Z,9.7
2019-04-21T04:00:41.632Z,8.8
2019-04-21T04:17:11.387Z,8.8
2019-04-21T04:22:37.654Z,9
2019-04-21T04:28:07.963Z,9.3
2019-04-21T04:33:48.108Z,10.1
2019-04-21T04:49:59.122Z,8.9
2019-04-21T04:55:45.379Z,8.3
2019-04-21T05:12:08.797Z,7.8
2019-04-21T05:28:36.786Z,8.4
2019-04-21T05:45:26.657Z,7.7
2019-04-21T07:47:32.442Z,12.8
2019-04-21T07:53:06.824Z,13.2
2019-04-21T07:58:45.322Z,13.3
2019-04-21T08:04:24.120Z,13.4
2019-04-21T08:09:40.606Z,13.5
2019-04-21T08:15:19.275Z,13.3
2019-04-21T08:20:47.633Z,13.5
2019-04-21T08:26:24.088Z,13.9
2019-04-21T08:32:02.449Z,14
2019-04-21T08:37:30.563Z,14.3
2019-04-21T08:42:59.467Z,14.7
2019-04-21T08:48:41.876Z,14.5
2019-04-21T08:54:14.920Z,14.6
2019-04-21T09:05:17.365Z,15
2019-04-21T09:10:52.690Z,15
2019-04-21T09:16:24.753Z,15.1
2019-04-21T09:22:00.298Z,15.4
2019-04-21T09:27:30.341Z,15.6
2019-04-21T09:32:54.795Z,15.6
2019-04-21T09:38:34.929Z,15.8
2019-04-21T10:28:46.849Z,17.7
2019-04-21T10:34:21.336Z,18.1
2019-04-21T10:39:56.043Z,17.6
2019-04-21T10:45:30.922Z,18
2019-04-21T10:51:05.336Z,18.3
2019-04-21T10:56:43.348Z,18.5
2019-04-21T11:02:13.009Z,18.5
2019-04-21T11:08:00.769Z,19
2019-04-21T11:13:22.989Z,18.4
2019-04-21T11:18:57.923Z,18.6
2019-04-21T11:24:33.241Z,19.1
2019-04-21T11:30:07.483Z,20
2019-04-21T11:35:41.920Z,19.9
2019-04-21T11:41:17.990Z,20
2019-04-21T12:03:39.909Z,20
2019-04-21T12:09:14.667Z,20.7
2019-04-21T12:14:50.286Z,20.4
2019-04-21T12:20:24.394Z,19.5
2019-04-21T12:25:59.126Z,19.7
2019-04-21T12:31:33.724Z,19.4
2019-04-21T12:37:08.767Z,19.9
2019-04-21T12:42:43.701Z,19.8
2019-04-21T12:48:18.126Z,20
2019-04-21T12:53:53.994Z,19.7
2019-04-21T12:59:30.553Z,20.1
2019-04-21T13:05:03.920Z,20.1
2019-04-21T13:10:38.229Z,19.9
2019-04-21T13:16:13.818Z,20
2019-04-21T13:21:48.222Z,20.2
2019-04-21T13:27:24.521Z,20.6
2019-04-21T13:32:58.873Z,20.3
2019-04-21T13:38:37.499Z,21.8
2019-04-21T13:44:08.776Z,21.7
2019-04-21T13:49:43.474Z,20.6
2019-04-21T13:55:19.344Z,21.2
2019-04-21T14:00:54.284Z,21
2019-04-21T14:06:30.117Z,22.2
2019-04-21T14:12:05.712Z,21.8
2019-04-21T14:17:42.513Z,21.2
2019-04-21T14:23:25.216Z,20.8
2019-04-21T14:28:54.621Z,21.1
2019-04-21T14:34:30.162Z,20.7
2019-04-21T14:40:08.891Z,20.9
2019-04-21T14:45:42.913Z,20.7
2019-04-21T15:02:31.580Z,20.5
2019-04-21T15:24:54.188Z,20.4
2019-04-21T15:30:29.169Z,20
2019-04-21T15:36:05.046Z,20
2019-04-21T15:41:38.551Z,19.7
2019-04-21T15:47:13.700Z,19.8
2019-04-21T15:52:47.670Z,19.9
2019-04-21T15:58:22.757Z,19.6
2019-04-21T16:03:58.715Z,19.5
2019-04-21T16:09:31.121Z,19.2
2019-04-21T16:15:04.878Z,19.4
2019-04-21T16:20:39.694Z,18.8
2019-04-21T16:26:12.781Z,18.5
2019-04-21T16:31:46.993Z,18.7
2019-04-21T16:37:21.543Z,17.8
2019-04-21T16:48:30.868Z,18.1
2019-04-21T16:54:03.941Z,18.6
2019-04-21T16:59:38.834Z,19.1
2019-04-21T17:10:58.870Z,19.5
2019-04-21T17:16:41.944Z,19.7
2019-04-21T17:21:52.367Z,19.9
2019-04-21T17:27:27.063Z,20.2
2019-04-21T17:32:59.448Z,19.5
2019-04-21T17:55:22.874Z,19.3
2019-04-21T18:12:10.647Z,18.7
2019-04-21T18:17:30.253Z,18.5
2019-04-21T19:07:51.571Z,15.1
2019-04-21T20:17:09.818Z,15.1
2019-04-21T20:22:38.201Z,14.8
2019-04-21T20:28:18.825Z,14.7
2019-04-21T20:34:04.931Z,15
2019-04-21T20:39:23.362Z,14.6
2019-04-21T20:50:41.666Z,15.1
2019-04-21T20:56:12.899Z,14.7
2019-04-21T21:01:54.755Z,14.5
2019-04-21T21:07:39.879Z,14
2019-04-21T21:13:14.066Z,13.7
2019-04-21T21:24:13.251Z,13.4
2019-04-21T21:29:49.706Z,12.9
2019-04-21T21:35:21.238Z,13.2
2019-04-21T21:40:52.882Z,13
2019-04-21T21:46:28.271Z,12.7
2019-04-21T21:51:58.989Z,12.7
2019-04-21T21:57:22.889Z,12.4
2019-04-21T22:02:58.570Z,12.8
2019-04-21T22:08:30.392Z,12.5
2019-04-21T22:14:07.980Z,11.9
2019-04-21T22:20:02.833Z,11.9
2019-04-21T22:25:18.199Z,11.3
2019-04-21T22:30:48.072Z,11.5
2019-04-21T22:36:32.573Z,11.3
2019-04-21T22:42:01.617Z,11.5
2019-04-21T22:47:31.804Z,11.2
2019-04-21T22:53:04.657Z,10.9
2019-04-21T22:58:39.223Z,11
2019-04-21T23:04:08.859Z,10.4
2019-04-21T23:09:43.153Z,10.4
2019-04-21T23:15:19.391Z,10.3
2019-04-21T23:21:06.041Z,10.3
2019-04-21T23:26:39.316Z,10.4
2019-04-21T23:37:33.918Z,10.3
2019-04-21T23:48:55.791Z,10.8
2019-04-21T23:54:15.578Z,10.5
